createdAt,value
2023-03-01T00:00:38.541Z,-2.42
2023-03-01T00:03:26.453Z,-2.44
2023-03-01T00:06:14.862Z,-2.47
2023-03-01T00:09:02.907Z,-2.49
2023-03-01T00:11:52.378Z,-2.49
2023-03-01T00:14:40.454Z,-2.52
2023-03-01T00:17:29.645Z,-2.55
2023-03-01T00:20:17.669Z,-2.56
2023-03-01T00:23:05.716Z,-2.59
2023-03-01T00:25:54.276Z,-2.64
2023-03-01T00:28:44.019Z,-2.69
2023-03-01T00:31:33.507Z,-2.71
2023-03-01T00:34:21.235Z,-2.77
2023-03-01T00:37:09.014Z,-2.84
2023-03-01T00:39:56.895Z,-2.90
2023-03-01T00:42:44.677Z,-2.93
2023-03-01T00:45:35.219Z,-2.97
2023-03-01T00:48:22.930Z,-3.01
2023-03-01T00:51:12.911Z,-3.05
2023-03-01T00:54:04.638Z,-3.06
2023-03-01T00:56:52.443Z,-3.09
2023-03-01T00:59:40.314Z,-3.12
2023-03-01T01:02:29.570Z,-3.15
2023-03-01T01:05:21.875Z,-3.20
2023-03-01T01:08:09.589Z,-3.19
2023-03-01T01:10:57.565Z,-3.20
2023-03-01T01:13:47.604Z,-3.19
2023-03-01T01:16:35.554Z,-3.23
2023-03-01T01:19:25.239Z,-3.26
2023-03-01T01:22:12.971Z,-3.31
2023-03-01T01:25:01.033Z,-3.34
2023-03-01T01:27:48.630Z,-3.39
2023-03-01T01:30:36.509Z,-3.38
2023-03-01T01:33:24.562Z,-3.39
2023-03-01T01:36:14.350Z,-3.44
2023-03-01T01:39:03.099Z,-3.47
2023-03-01T01:41:51.156Z,-3.50
2023-03-01T01:44:39.063Z,-3.54
2023-03-01T01:47:27.374Z,-3.57
2023-03-01T01:50:21.423Z,-3.58
2023-03-01T01:53:17.068Z,-3.64
2023-03-01T01:56:08.386Z,-3.64
2023-03-01T01:58:57.190Z,-3.69
2023-03-01T02:01:45.999Z,-3.72
2023-03-01T02:04:34.467Z,-3.77
2023-03-01T02:07:26.609Z,-3.80
2023-03-01T02:10:16.347Z,-3.83
2023-03-01T02:13:04.966Z,-3.87
2023-03-01T02:15:53.029Z,-3.92
2023-03-01T02:18:41.975Z,-3.90
2023-03-01T02:21:41.144Z,-3.94
2023-03-01T02:24:37.509Z,-3.96
2023-03-01T02:27:35.222Z,-4.02
2023-03-01T02:30:26.630Z,-4.01
2023-03-01T02:33:13.701Z,-4.03
2023-03-01T02:36:03.445Z,-4.01
2023-03-01T02:38:55.494Z,-4.01
2023-03-01T02:41:47.910Z,-3.94
2023-03-01T02:44:35.949Z,-3.96
2023-03-01T02:47:25.399Z,-4.04
2023-03-01T02:50:25.483Z,-4.10
2023-03-01T02:53:24.057Z,-4.16
2023-03-01T02:56:13.894Z,-4.19
2023-03-01T02:59:03.452Z,-4.21
2023-03-01T03:01:51.233Z,-4.20
2023-03-01T03:04:40.505Z,-4.22
2023-03-01T03:07:28.304Z,-4.26
2023-03-01T03:10:22.111Z,-4.27
2023-03-01T03:13:12.821Z,-4.25
2023-03-01T03:16:01.041Z,-4.24
2023-03-01T03:18:49.342Z,-4.30
2023-03-01T03:21:38.773Z,-4.31
2023-03-01T03:24:27.177Z,-4.34
2023-03-01T03:27:14.722Z,-4.34
2023-03-01T03:30:02.800Z,-4.37
2023-03-01T03:32:54.053Z,-4.38
2023-03-01T03:35:45.089Z,-4.39
2023-03-01T03:38:34.545Z,-4.41
2023-03-01T03:41:22.370Z,-4.41
2023-03-01T03:44:10.244Z,-4.42
2023-03-01T03:46:58.170Z,-4.43
2023-03-01T03:49:45.934Z,-4.45
2023-03-01T03:52:33.896Z,-4.44
2023-03-01T03:55:23.176Z,-4.46
2023-03-01T03:58:12.391Z,-4.47
2023-03-01T04:01:01.719Z,-4.52
2023-03-01T04:03:49.681Z,-4.53
2023-03-01T04:06:37.697Z,-4.55
2023-03-01T04:09:25.438Z,-4.50
2023-03-01T04:12:14.735Z,-4.41
2023-03-01T04:15:02.751Z,-4.43
2023-03-01T04:17:50.578Z,-4.45
2023-03-01T04:20:39.094Z,-4.47
2023-03-01T04:23:26.955Z,-4.47
2023-03-01T04:26:15.059Z,-4.48
2023-03-01T04:29:04.361Z,-4.46
2023-03-01T04:31:52.367Z,-4.46
2023-03-01T04:34:40.389Z,-4.47
2023-03-01T04:37:28.505Z,-4.50
2023-03-01T04:40:18.126Z,-4.49
2023-03-01T04:43:06.820Z,-4.50
2023-03-01T04:45:55.826Z,-4.54
2023-03-01T04:48:45.341Z,-4.52
2023-03-01T04:51:33.966Z,-4.44
2023-03-01T04:54:21.974Z,-4.47
2023-03-01T04:57:09.923Z,-4.49
2023-03-01T04:59:58.054Z,-4.52
2023-03-01T05:02:47.859Z,-4.49
2023-03-01T05:05:37.206Z,-4.47
2023-03-01T05:08:25.091Z,-4.49
2023-03-01T05:11:14.090Z,-4.46
2023-03-01T05:14:02.146Z,-4.43
2023-03-01T05:16:50.082Z,-4.43
2023-03-01T05:19:39.428Z,-4.51
2023-03-01T05:22:27.216Z,-4.51
2023-03-01T05:25:16.922Z,-4.45
2023-03-01T05:28:05.968Z,-4.49
2023-03-01T05:30:53.946Z,-4.52
2023-03-01T05:33:42.981Z,-4.53
2023-03-01T05:36:32.556Z,-4.55
2023-03-01T05:39:20.480Z,-4.58
2023-03-01T05:42:09.640Z,-4.62
2023-03-01T05:44:58.070Z,-4.62
2023-03-01T05:47:48.210Z,-4.64
2023-03-01T05:50:37.843Z,-4.67
2023-03-01T05:53:28.324Z,-4.70
2023-03-01T05:56:16.047Z,-4.71
2023-03-01T05:59:05.909Z,-4.72
2023-03-01T06:01:54.549Z,-4.74
2023-03-01T06:04:42.967Z,-4.76
2023-03-01T06:07:31.189Z,-4.78
2023-03-01T06:10:22.040Z,-4.78
2023-03-01T06:13:10.186Z,-4.79
2023-03-01T06:15:58.317Z,-4.81
2023-03-01T06:18:46.292Z,-4.77
2023-03-01T06:21:34.233Z,-4.77
2023-03-01T06:24:22.068Z,-4.76
2023-03-01T06:27:11.305Z,-4.76
2023-03-01T06:29:59.173Z,-4.78
2023-03-01T06:32:47.282Z,-4.77
2023-03-01T06:35:35.626Z,-4.73
2023-03-01T06:38:23.594Z,-4.71
2023-03-01T06:41:11.653Z,-4.65
2023-03-01T06:44:01.275Z,-4.53
2023-03-01T06:46:49.470Z,-4.56
2023-03-01T06:49:37.465Z,-4.51
2023-03-01T06:52:25.323Z,-4.45
2023-03-01T06:55:13.293Z,-4.30
2023-03-01T06:58:02.613Z,-4.26
2023-03-01T07:00:51.599Z,-4.14
2023-03-01T07:03:39.251Z,-4.12
2023-03-01T07:06:29.300Z,-4.12
2023-03-01T07:09:20.706Z,-4.08
2023-03-01T07:12:34.529Z,-4.03
2023-03-01T07:15:23.399Z,-3.98
2023-03-01T07:18:12.749Z,-3.82
2023-03-01T07:21:07.146Z,-3.56
2023-03-01T07:23:54.850Z,-3.40
2023-03-01T07:26:42.950Z,-3.24
2023-03-01T07:29:30.763Z,-3.17
2023-03-01T07:32:18.604Z,-3.02
2023-03-01T07:35:08.742Z,-2.89
2023-03-01T07:37:56.479Z,-2.92
2023-03-01T07:40:44.403Z,-2.78
2023-03-01T07:43:32.862Z,-2.67
2023-03-01T07:46:22.563Z,-2.59
2023-03-01T07:49:10.683Z,-2.51
2023-03-01T07:52:01.325Z,-2.39
2023-03-01T07:54:49.247Z,-2.34
2023-03-01T07:57:37.091Z,-2.19
2023-03-01T08:00:25.384Z,-2.13
2023-03-01T08:06:03.608Z,-2.09
2023-03-01T08:08:52.876Z,-1.90
2023-03-01T08:11:41.887Z,-1.83
2023-03-01T08:14:29.604Z,-1.80
2023-03-01T08:17:17.735Z,-1.57
2023-03-01T08:20:07.893Z,-1.45
2023-03-01T08:22:57.140Z,-1.34
2023-03-01T08:25:46.240Z,-1.11
2023-03-01T08:28:36.081Z,-0.98
2023-03-01T08:31:26.048Z,-0.87
2023-03-01T08:34:16.747Z,-0.69
2023-03-01T08:37:04.743Z,-0.51
2023-03-01T08:39:52.898Z,-0.57
2023-03-01T08:42:43.603Z,-0.39
2023-03-01T08:45:32.259Z,-0.30
2023-03-01T08:48:20.250Z,-0.18
2023-03-01T08:51:12.462Z,0.04
2023-03-01T08:54:00.193Z,0.16
2023-03-01T08:56:48.407Z,0.47
2023-03-01T08:59:38.314Z,0.55
2023-03-01T09:02:26.438Z,0.63
2023-03-01T09:05:14.468Z,0.80
2023-03-01T09:08:02.554Z,0.98
2023-03-01T09:10:50.552Z,1.04
2023-03-01T09:13:39.269Z,1.08
2023-03-01T09:16:31.280Z,1.30
2023-03-01T09:19:19.262Z,1.56
2023-03-01T09:22:07.335Z,1.50
2023-03-01T09:24:55.518Z,1.60
2023-03-01T09:27:43.692Z,1.80
2023-03-01T09:30:32.321Z,1.89
2023-03-01T09:33:21.722Z,2.12
2023-03-01T09:36:13.002Z,2.28
2023-03-01T09:39:01.190Z,2.15
2023-03-01T09:41:56.686Z,2.11
2023-03-01T09:44:50.220Z,2.15
2023-03-01T09:47:41.475Z,2.27
2023-03-01T09:50:35.427Z,2.38
2023-03-01T09:53:29.192Z,2.59
2023-03-01T09:56:23.362Z,2.88
2023-03-01T09:59:25.352Z,3.02
2023-03-01T10:02:28.627Z,3.23
2023-03-01T10:05:37.992Z,3.16
2023-03-01T10:08:53.063Z,3.42
2023-03-01T10:11:46.005Z,3.62
2023-03-01T10:14:39.059Z,3.79
2023-03-01T10:17:37.304Z,4.21
2023-03-01T10:20:26.941Z,4.17
2023-03-01T10:23:16.075Z,4.39
2023-03-01T10:26:21.694Z,4.56
2023-03-01T10:29:11.716Z,5.01
2023-03-01T10:31:59.693Z,5.18
2023-03-01T10:34:47.913Z,5.41
2023-03-01T10:37:35.721Z,5.75
2023-03-01T10:40:24.700Z,5.81
2023-03-01T10:43:14.881Z,6.07
2023-03-01T10:46:02.920Z,6.31
2023-03-01T10:49:09.964Z,6.55
2023-03-01T10:51:58.067Z,6.75
2023-03-01T10:54:55.625Z,7.00
2023-03-01T10:57:44.835Z,7.07
2023-03-01T11:00:33.822Z,7.35
2023-03-01T11:03:25.338Z,7.63
2023-03-01T11:06:24.448Z,7.83
2023-03-01T11:09:20.951Z,8.05
2023-03-01T11:12:17.066Z,8.19
2023-03-01T11:15:07.476Z,8.23
2023-03-01T11:18:05.717Z,9.29
2023-03-01T11:21:03.942Z,9.79
2023-03-01T11:23:51.676Z,10.31
2023-03-01T11:26:42.475Z,10.61
2023-03-01T11:29:43.233Z,10.81
2023-03-01T11:32:42.948Z,11.32
2023-03-01T11:35:34.201Z,11.59
2023-03-01T11:38:26.714Z,12.03
2023-03-01T11:41:18.989Z,12.06
2023-03-01T11:44:14.941Z,12.30
2023-03-01T11:47:30.372Z,12.49
2023-03-01T11:50:27.972Z,12.78
2023-03-01T11:53:36.409Z,12.87
2023-03-01T11:56:33.897Z,13.28
2023-03-01T11:59:47.333Z,13.85
2023-03-01T12:02:53.999Z,13.78
2023-03-01T12:06:16.561Z,14.13
2023-03-01T12:09:23.050Z,14.14
2023-03-01T12:12:37.315Z,14.12
2023-03-01T12:15:43.630Z,13.81
2023-03-01T12:18:52.036Z,14.23
2023-03-01T12:22:03.098Z,14.13
2023-03-01T12:25:21.503Z,14.05
2023-03-01T12:28:35.038Z,14.42
2023-03-01T12:31:59.919Z,14.55
2023-03-01T12:35:07.124Z,15.21
2023-03-01T12:38:07.975Z,15.16
2023-03-01T12:41:18.604Z,15.54
2023-03-01T12:44:22.271Z,15.73
2023-03-01T12:47:25.340Z,15.01
2023-03-01T12:50:16.292Z,15.58
2023-03-01T12:53:05.412Z,15.31
2023-03-01T12:55:56.658Z,15.71
2023-03-01T12:58:58.581Z,15.65
2023-03-01T13:01:56.630Z,15.84
2023-03-01T13:05:04.951Z,15.75
2023-03-01T13:08:02.076Z,15.03
2023-03-01T13:10:54.897Z,15.30
2023-03-01T13:13:42.441Z,15.61
2023-03-01T13:16:46.040Z,15.95
2023-03-01T13:19:36.813Z,15.63
2023-03-01T13:22:32.400Z,15.90
2023-03-01T13:25:23.129Z,15.48
2023-03-01T13:28:48.527Z,15.81
2023-03-01T13:32:04.911Z,15.69
2023-03-01T13:34:55.793Z,15.88
2023-03-01T13:37:45.334Z,15.74
2023-03-01T13:41:01.204Z,15.90
2023-03-01T13:43:50.938Z,15.79
2023-03-01T13:46:38.759Z,15.66
2023-03-01T13:49:44.343Z,15.70
2023-03-01T13:52:41.805Z,15.84
2023-03-01T13:55:42.893Z,15.80
2023-03-01T13:58:33.400Z,15.58
2023-03-01T14:01:30.660Z,15.57
2023-03-01T14:04:26.623Z,15.53
2023-03-01T14:07:20.058Z,15.42
2023-03-01T14:10:09.490Z,15.48
2023-03-01T14:13:16.120Z,15.40
2023-03-01T14:16:22.451Z,15.15
2023-03-01T14:19:32.645Z,15.30
2023-03-01T14:22:25.006Z,15.23
2023-03-01T14:25:26.632Z,15.01
2023-03-01T14:28:19.699Z,14.75
2023-03-01T14:31:47.043Z,14.82
2023-03-01T14:34:48.588Z,14.26
2023-03-01T14:37:37.442Z,14.43
2023-03-01T14:40:28.258Z,14.31
2023-03-01T14:43:23.640Z,14.38
2023-03-01T14:46:23.429Z,14.01
2023-03-01T14:49:15.981Z,14.09
2023-03-01T14:52:09.068Z,14.10
2023-03-01T14:54:59.656Z,13.62
2023-03-01T14:57:51.770Z,13.14
2023-03-01T15:00:50.232Z,13.19
2023-03-01T15:03:42.294Z,13.30
2023-03-01T15:06:31.109Z,13.11
2023-03-01T15:09:21.153Z,13.02
2023-03-01T15:12:41.438Z,12.61
2023-03-01T15:15:49.034Z,12.49
2023-03-01T15:18:38.252Z,12.70
2023-03-01T15:21:29.598Z,12.85
2023-03-01T15:24:25.492Z,12.76
2023-03-01T15:27:19.608Z,12.81
2023-03-01T15:30:08.690Z,12.91
2023-03-01T15:33:23.258Z,12.77
2023-03-01T15:36:36.093Z,12.80
2023-03-01T15:39:38.239Z,12.89
2023-03-01T15:42:40.538Z,12.81
2023-03-01T15:45:30.673Z,12.62
2023-03-01T15:48:21.992Z,12.59
2023-03-01T15:51:16.262Z,12.69
2023-03-01T15:54:09.320Z,12.60
2023-03-01T15:56:59.509Z,12.67
2023-03-01T15:59:50.469Z,12.66
2023-03-01T16:02:40.429Z,12.48
2023-03-01T16:05:32.010Z,12.08
2023-03-01T16:08:20.928Z,12.11
2023-03-01T16:11:16.388Z,11.89
2023-03-01T16:14:05.601Z,12.00
2023-03-01T16:16:53.781Z,11.94
2023-03-01T16:19:42.021Z,11.43
2023-03-01T16:22:30.866Z,11.33
2023-03-01T16:25:20.377Z,11.13
2023-03-01T16:28:11.069Z,10.73
2023-03-01T16:31:02.357Z,10.67
2023-03-01T16:33:52.481Z,10.51
2023-03-01T16:36:40.466Z,10.21
2023-03-01T16:39:28.299Z,10.16
2023-03-01T16:42:17.386Z,9.97
2023-03-01T16:45:18.405Z,9.94
2023-03-01T16:48:13.721Z,9.90
2023-03-01T16:51:02.784Z,9.61
2023-03-01T16:53:51.002Z,9.45
2023-03-01T16:56:40.629Z,9.23
2023-03-01T16:59:31.112Z,9.09
2023-03-01T17:02:20.826Z,9.03
2023-03-01T17:05:11.987Z,8.94
2023-03-01T17:08:00.794Z,8.77
2023-03-01T17:10:48.971Z,8.60
2023-03-01T17:13:37.456Z,8.47
2023-03-01T17:16:28.826Z,8.25
2023-03-01T17:19:18.691Z,8.19
2023-03-01T17:22:07.828Z,8.07
2023-03-01T17:24:55.991Z,7.93
2023-03-01T17:27:43.784Z,7.63
2023-03-01T17:30:31.769Z,7.47
2023-03-01T17:33:20.621Z,7.29
2023-03-01T17:36:08.712Z,7.18
2023-03-01T17:39:00.115Z,6.98
2023-03-01T17:41:48.193Z,6.88
2023-03-01T17:44:36.367Z,6.84
2023-03-01T17:47:24.461Z,6.77
2023-03-01T17:50:16.504Z,6.64
2023-03-01T17:53:10.091Z,6.51
2023-03-01T17:56:04.166Z,6.37
2023-03-01T17:58:52.020Z,6.25
2023-03-01T18:01:43.428Z,6.09
2023-03-01T18:04:32.318Z,6.01
2023-03-01T18:07:20.697Z,5.86
2023-03-01T18:10:08.997Z,5.79
2023-03-01T18:12:58.185Z,5.67
2023-03-01T18:15:45.803Z,5.62
2023-03-01T18:18:33.627Z,5.53
2023-03-01T18:21:23.549Z,5.35
2023-03-01T18:24:11.464Z,5.28
2023-03-01T18:26:59.340Z,5.20
2023-03-01T18:29:48.811Z,5.11
2023-03-01T18:32:39.571Z,4.97
2023-03-01T18:35:31.524Z,4.89
2023-03-01T18:38:19.531Z,4.78
2023-03-01T18:41:07.398Z,4.72
2023-03-01T18:43:57.440Z,4.68
2023-03-01T18:46:47.329Z,4.59
2023-03-01T18:49:35.365Z,4.49
2023-03-01T18:52:23.407Z,4.35
2023-03-01T18:55:12.109Z,4.26
2023-03-01T18:57:59.832Z,4.17
2023-03-01T19:00:48.117Z,4.08
2023-03-01T19:03:38.906Z,3.98
2023-03-01T19:06:31.321Z,3.95
2023-03-01T19:09:19.287Z,3.85
2023-03-01T19:12:07.553Z,3.81
2023-03-01T19:14:55.557Z,3.75
2023-03-01T19:17:43.710Z,3.70
2023-03-01T19:20:33.173Z,3.64
2023-03-01T19:23:20.865Z,3.62
2023-03-01T19:26:11.687Z,3.56
2023-03-01T19:28:59.887Z,3.46
2023-03-01T19:31:47.838Z,3.42
2023-03-01T19:34:38.289Z,3.41
2023-03-01T19:37:28.113Z,3.28
2023-03-01T19:40:19.415Z,3.20
2023-03-01T19:43:10.631Z,3.19
2023-03-01T19:46:00.178Z,3.15
2023-03-01T19:48:50.136Z,3.11
2023-03-01T19:51:39.326Z,3.08
2023-03-01T19:54:28.772Z,2.99
2023-03-01T19:57:17.773Z,2.85
2023-03-01T20:00:06.738Z,2.77
2023-03-01T20:02:56.579Z,2.73
2023-03-01T20:05:46.569Z,2.67
2023-03-01T20:08:34.619Z,2.63
2023-03-01T20:11:24.252Z,2.60
2023-03-01T20:14:13.139Z,2.52
2023-03-01T20:17:01.157Z,2.46
2023-03-01T20:19:49.202Z,2.35
2023-03-01T20:22:37.251Z,2.33
2023-03-01T20:25:25.133Z,2.23
2023-03-01T20:28:14.468Z,2.20
2023-03-01T20:31:07.707Z,2.17
2023-03-01T20:33:57.747Z,2.17
2023-03-01T20:36:45.968Z,2.12
2023-03-01T20:39:33.620Z,2.08
2023-03-01T20:42:21.773Z,2.03
2023-03-01T20:45:12.148Z,1.94
2023-03-01T20:48:00.295Z,1.86
2023-03-01T20:50:48.538Z,1.78
2023-03-01T20:53:36.600Z,1.74
2023-03-01T20:56:26.796Z,1.67
2023-03-01T20:59:15.869Z,1.58
2023-03-01T21:02:05.261Z,1.52
2023-03-01T21:04:53.051Z,1.46
2023-03-01T21:07:40.911Z,1.41
2023-03-01T21:10:28.847Z,1.35
2023-03-01T21:13:17.063Z,1.26
2023-03-01T21:16:08.028Z,1.19
2023-03-01T21:18:57.447Z,1.17
2023-03-01T21:21:45.462Z,1.09
2023-03-01T21:24:34.054Z,1.05
2023-03-01T21:27:21.817Z,1.04
2023-03-01T21:30:11.292Z,0.99
2023-03-01T21:32:59.414Z,0.95
2023-03-01T21:35:49.063Z,0.88
2023-03-01T21:38:38.545Z,0.88
2023-03-01T21:41:28.054Z,0.84
2023-03-01T21:44:16.104Z,0.77
2023-03-01T21:47:04.228Z,0.69
2023-03-01T21:49:52.077Z,0.66
2023-03-01T21:52:41.347Z,0.61
2023-03-01T21:55:29.314Z,0.56
2023-03-01T21:58:17.380Z,0.55
2023-03-01T22:01:10.263Z,0.52
2023-03-01T22:03:59.856Z,0.48
2023-03-01T22:06:48.221Z,0.42
2023-03-01T22:09:38.952Z,0.38
2023-03-01T22:12:26.696Z,0.34
2023-03-01T22:15:14.634Z,0.31
2023-03-01T22:18:02.262Z,0.28
2023-03-01T22:20:50.294Z,0.26
2023-03-01T22:23:39.944Z,0.25
2023-03-01T22:26:31.678Z,0.22
2023-03-01T22:29:24.780Z,0.18
2023-03-01T22:32:12.792Z,0.13
2023-03-01T22:35:00.885Z,0.10
2023-03-01T22:37:48.726Z,0.08
2023-03-01T22:40:38.534Z,0.05
2023-03-01T22:43:30.016Z,0.06
2023-03-01T22:46:20.053Z,0.04
2023-03-01T22:49:08.287Z,-0.01
2023-03-01T22:51:56.386Z,-0.07
2023-03-01T22:54:44.414Z,-0.12
2023-03-01T22:57:32.223Z,-0.15
2023-03-01T23:00:22.553Z,-0.16
2023-03-01T23:03:10.663Z,-0.16
2023-03-01T23:05:58.468Z,-0.16
2023-03-01T23:08:49.694Z,-0.17
2023-03-01T23:11:37.471Z,-0.23
2023-03-01T23:14:26.088Z,-0.28
2023-03-01T23:17:15.504Z,-0.30
2023-03-01T23:20:07.042Z,-0.34
2023-03-01T23:23:01.558Z,-0.35
2023-03-01T23:25:56.712Z,-0.38
2023-03-01T23:28:45.250Z,-0.40
2023-03-01T23:31:32.966Z,-0.37
2023-03-01T23:34:22.424Z,-0.32
2023-03-01T23:37:10.971Z,-0.35
2023-03-01T23:39:58.699Z,-0.36
2023-03-01T23:42:47.090Z,-0.34
2023-03-01T23:45:37.763Z,-0.38
2023-03-01T23:48:25.604Z,-0.40
2023-03-01T23:51:15.967Z,-0.44
2023-03-01T23:54:05.438Z,-0.47
2023-03-01T23:56:53.472Z,-0.50
2023-03-01T23:59:41.947Z,-0.54
